Latest Weather Observations for Edithburgh

IDS60801

Issued at 2:01 pm CDT Wednesday 22 February 2017 (issued every 30 minutes, with the page automatically refreshed every 10 minutes)

About weather observations | Map of weather stations | Latest weather observations for SA | Other Formats
Station Details ID: 022046 Name: EDITHBURGH Lat: -35.11 Lon: 137.74 Height: 6.0 m
Data from the previous 72 hours. | See also: Recent months at Edithburgh
Date/Time
CDT
Temp
°C
App
Temp
°C
Dew
Point
°C
Rel
Hum
%
Delta-T
°C
Wind Press
QNH
hPa
Press
MSL
hPa
Rain since
9am
mm
Dir  Spd
km/h
Gust
km/h
Spd
kts
Gust
kts
22/02:00pm 24.9 17.5 8.3 34 8.9 NW 37 50 20 27 1010.0 1010.0 0.0
22/01:30pm 25.2 18.1 7.9 33 9.2 NW 35 54 19 29 1010.0 1010.0 0.0
22/01:13pm 24.8 17.5 7.3 32 9.2 NW 35 56 19 30 1009.9 1009.9 0.0
22/01:00pm 25.4 17.7 6.9 30 9.7 WNW 37 50 20 27 1010.0 1010.0 0.0
22/12:33pm 22.4 13.9 7.1 37 7.9 WNW 41 59 22 32 1010.2 1010.2 0.0
22/12:30pm 22.9 13.9 7.1 36 8.2 WNW 44 59 24 32 1010.3 1010.3 0.0
22/12:00pm 22.7 14.4 7.6 38 7.9 WNW 41 54 22 29 1010.0 1010.0 0.0
22/11:45am 24.6 16.2 5.5 29 9.7 NW 39 56 21 30 1009.7 1009.7 0.0
22/11:38am 26.1 20.1 7.2 30 10.0 NNW 28 50 15 27 1009.2 1009.2 0.0
22/11:30am 26.5 21.5 8.1 31 9.9 NW 24 41 13 22 1008.5 1008.5 0.0
22/11:00am 22.5 16.1 8.6 41 7.4 WNW 32 41 17 22 1009.6 1009.6 0.0
22/10:30am 23.1 17.4 11.7 48 6.4 W 33 46 18 25 1009.9 1009.9 0.0
22/10:00am 23.8 18.1 14.1 54 5.7 W 37 56 20 30 1009.6 1009.6 0.0
22/09:30am 23.6 15.9 14.5 56 5.4 W 48 70 26 38 1008.9 1008.9 0.0
22/09:28am 23.8 16.0 14.1 54 5.7 WNW 48 70 26 38 1008.8 1008.8 0.0
22/09:26am 24.9 16.8 13.2 48 6.8 WNW 48 70 26 38 1008.6 1008.6 0.0
22/09:25am 26.1 17.5 11.8 41 8.2 NW 48 70 26 38 1008.4 1008.4 0.0
22/09:19am 27.2 18.0 8.2 30 10.3 NW 46 63 25 34 1008.1 1008.1 0.0
22/09:00am 27.2 16.9 4.9 24 11.4 NNW 48 63 26 34 1007.4 1007.4 0.0
22/08:44am 27.2 19.7 3.3 21 11.9 N 32 63 17 34 1007.3 1007.3 0.0
22/08:41am 26.8 21.1 2.8 21 11.8 N 22 56 12 30 1007.3 1007.3 0.0
22/08:30am 23.1 19.5 6.6 34 8.5 N 15 24 8 13 1007.5 1007.5 0.0
22/08:00am 22.1 19.2 12.4 54 5.5 NNE 19 28 10 15 1006.6 1006.6 0.0
22/07:30am 21.8 18.8 13.7 60 4.7 N 22 33 12 18 1006.2 1006.2 0.0
22/07:00am 21.4 19.4 15.0 67 3.8 NNE 19 30 10 16 1005.8 1005.8 0.0
22/06:30am 21.6 18.9 14.6 64 4.1 NNE 22 33 12 18 1005.4 1005.4 0.0
22/06:00am 21.8 18.5 13.9 61 4.6 NNE 24 33 13 18 1005.7 1005.7 0.0
22/05:30am 21.9 18.7 13.2 57 5.0 NNE 22 35 12 19 1005.9 1005.9 0.0
22/05:00am 21.8 18.9 14.1 61 4.5 NNE 22 32 12 17 1005.7 1005.7 0.0
22/04:30am 21.7 19.6 15.1 66 3.9 NNE 20 30 11 16 1006.0 1006.0 0.0
22/04:00am 21.6 19.4 14.8 65 4.0 NNE 20 33 11 18 1006.6 1006.6 0.0
22/03:30am 21.5 19.5 14.9 66 3.9 NNE 19 30 10 16 1007.1 1007.1 0.0
22/03:00am 22.0 19.6 14.5 62 4.4 NNE 20 32 11 17 1007.5 1007.5 0.0
22/02:30am 22.1 20.2 15.2 65 4.1 NNE 19 28 10 15 1007.7 1007.7 0.0
22/02:00am 22.2 20.5 15.7 66 3.9 NNE 19 28 10 15 1008.3 1008.3 0.0
22/01:30am 22.3 20.7 16.0 67 3.8 NNE 19 26 10 14 1008.7 1008.7 0.0
22/01:00am 22.9 21.2 15.8 64 4.3 NNE 19 28 10 15 1009.1 1009.1 0.0
22/12:30am 23.2 20.2 14.8 59 5.0 NE 24 32 13 17 1009.4 1009.4 0.0
22/12:00am 23.6 19.8 13.5 53 5.9 NE 26 33 14 18 1010.0 1010.0 0.0
 
Date/Time
CDT
Temp
°C
App
Temp
°C
Dew
Point
°C
Rel
Hum
%
Delta-T
°C
Wind Press
QNH
hPa
Press
MSL
hPa
Rain since
9am
mm
Dir  Spd
km/h
Gust
km/h
Spd
kts
Gust
kts
21/11:30pm 23.6 19.5 13.9 54 5.7 ENE 28 33 15 18 1010.2 1010.2 0.0
21/11:00pm 23.3 20.3 14.7 58 5.1 ENE 24 32 13 17 1010.7 1010.7 0.0
21/10:30pm 23.3 20.2 14.5 57 5.2 ENE 24 32 13 17 1011.2 1011.2 0.0
21/10:00pm 22.4 20.6 15.4 64 4.2 ENE 19 24 10 13 1011.5 1011.5 0.0
21/09:30pm 20.2 19.9 15.5 74 2.8 E 11 13 6 7 1011.7 1011.7 0.0
21/09:00pm 20.7 21.0 16.0 74 2.8 ESE 9 11 5 6 1011.6 1011.6 0.0
21/08:30pm 21.3 20.8 15.0 67 3.7 ESE 11 15 6 8 1011.4 1011.4 0.0
21/08:00pm 21.6 21.3 14.4 63 4.2 ESE 9 11 5 6 1011.4 1011.4 0.0
21/07:30pm 22.9 23.5 15.2 62 4.6 SE 6 7 3 4 1011.5 1011.5 0.0
21/07:00pm 22.8 23.8 16.8 69 3.7 SE 7 11 4 6 1011.5 1011.5 0.0
21/06:30pm 23.4 22.9 15.0 59 5.0 SSE 11 13 6 7 1011.7 1011.7 0.0
21/06:00pm 24.0 23.6 14.0 53 5.9 SE 9 13 5 7 1011.9 1011.9 0.0
21/05:30pm 24.5 23.8 14.2 52 6.1 SE 11 15 6 8 1012.1 1012.1 0.0
21/05:00pm 25.2 24.4 14.0 49 6.6 E 11 15 6 8 1012.3 1012.3 0.0
21/04:30pm 26.0 24.1 11.8 41 8.1 E 13 19 7 10 1012.8 1012.8 0.0
21/04:00pm 24.9 22.1 12.6 46 7.1 E 19 22 10 12 1013.3 1013.3 0.0
21/03:30pm 25.0 22.8 13.3 48 6.8 E 17 22 9 12 1013.8 1013.8 0.0
21/03:00pm 24.0 21.4 13.1 50 6.3 ENE 19 22 10 12 1014.2 1014.2 0.0
21/02:30pm 23.9 20.9 12.1 47 6.7 ENE 19 26 10 14 1014.9 1014.9 0.0
21/02:00pm 23.3 20.3 11.8 48 6.5 ENE 19 22 10 12 1015.4 1015.4 0.0
21/01:30pm 22.6 18.9 11.5 49 6.2 NE 22 26 12 14 1015.8 1015.8 0.0
21/01:00pm 22.2 18.4 11.2 49 6.1 NE 22 30 12 16 1016.1 1016.1 0.0
21/12:30pm 21.8 17.7 11.6 52 5.7 NE 24 30 13 16 1016.6 1016.6 0.0
21/12:00pm 21.2 17.7 11.0 52 5.6 NE 20 26 11 14 1017.1 1017.1 0.0
21/11:30am 20.9 17.7 11.3 54 5.3 NE 19 26 10 14 1017.6 1017.6 0.0
21/11:00am 20.4 18.0 11.3 56 5.0 NE 15 20 8 11 1018.1 1018.1 0.0
21/10:30am 20.1 16.8 10.9 55 5.0 NE 19 26 10 14 1018.3 1018.3 0.0
21/10:00am 19.8 16.1 10.3 54 5.1 NE 20 30 11 16 1018.4 1018.4 0.0
21/09:30am 19.8 15.6 9.6 51 5.4 NE 22 30 12 16 1018.4 1018.4 0.0
21/09:00am 19.5 16.3 9.9 54 5.1 NE 17 26 9 14 1018.3 1018.3 0.2
21/08:30am 19.1 16.5 10.6 58 4.6 NE 15 22 8 12 1018.3 1018.3 0.2
21/08:00am 18.6 16.0 10.8 60 4.2 NE 15 20 8 11 1018.3 1018.3 0.2
21/07:30am 17.7 14.3 10.4 62 3.9 NE 19 24 10 13 1017.6 1017.6 0.2
21/07:00am 17.0 15.1 10.4 65 3.5 NE 11 19 6 10 1017.7 1017.7 0.2
21/06:30am 16.7 14.5 10.7 67 3.2 NE 13 19 7 10 1017.4 1017.4 0.2
21/06:00am 15.8 13.7 9.6 66 3.2 NE 11 15 6 8 1017.2 1017.2 0.2
21/05:30am 16.5 15.0 10.5 67 3.2 NE 9 13 5 7 1017.4 1017.4 0.2
21/05:00am 14.9 13.0 9.2 68 2.9 ENE 9 13 5 7 1017.4 1017.4 0.2
21/04:30am 15.7 13.3 9.9 68 3.0 E 13 17 7 9 1017.4 1017.4 0.2
21/04:00am 15.9 12.5 9.1 64 3.5 E 17 22 9 12 1017.5 1017.5 0.2
21/03:30am 15.7 12.8 9.5 66 3.2 E 15 20 8 11 1017.6 1017.6 0.2
21/03:00am 15.7 13.3 9.9 68 3.0 ENE 13 20 7 11 1017.8 1017.8 0.2
21/02:30am 15.7 13.1 9.5 66 3.2 E 13 17 7 9 1018.0 1018.0 0.2
21/02:00am 15.8 13.1 9.0 64 3.5 ESE 13 20 7 11 1018.0 1018.0 0.2
21/01:30am 15.6 12.6 9.4 66 3.2 ESE 15 19 8 10 1018.5 1018.5 0.2
21/01:00am 15.8 12.8 9.2 65 3.4 ESE 15 19 8 10 1018.8 1018.8 0.2
21/12:30am 16.0 12.7 9.4 65 3.4 ESE 17 24 9 13 1018.9 1018.9 0.2
21/12:00am 16.1 12.6 8.9 62 3.7 ESE 17 22 9 12 1019.2 1019.2 0.2
 
Date/Time
CDT
Temp
°C
App
Temp
°C
Dew
Point
°C
Rel
Hum
%
Delta-T
°C
Wind Press
QNH
hPa
Press
MSL
hPa
Rain since
9am
mm
Dir  Spd
km/h
Gust
km/h
Spd
kts
Gust
kts
20/11:30pm 16.2 12.3 8.8 61 3.8 SE 19 26 10 14 1019.3 1019.3 0.2
20/11:00pm 16.2 12.3 8.5 60 3.9 SE 19 24 10 13 1019.4 1019.4 0.2
20/10:30pm 16.2 12.3 8.8 61 3.8 SE 19 24 10 13 1019.5 1019.5 0.2
20/10:00pm 16.5 12.4 8.0 57 4.3 SSE 19 26 10 14 1019.4 1019.4 0.2
20/09:30pm 16.5 12.6 8.7 60 4.0 SSE 19 24 10 13 1019.2 1019.2 0.2
20/09:00pm 16.7 12.6 8.7 59 4.1 SSE 20 26 11 14 1018.7 1018.7 0.2
20/08:30pm 16.9 13.4 8.7 58 4.2 SSE 17 22 9 12 1018.7 1018.7 0.2
20/08:00pm 17.1 14.0 8.7 57 4.3 SSE 15 20 8 11 1018.5 1018.5 0.2
20/07:30pm 17.8 14.6 8.4 54 4.8 SSE 15 22 8 12 1018.1 1018.1 0.2
20/07:00pm 18.4 15.1 8.0 50 5.3 S 15 20 8 11 1018.0 1018.0 0.2
20/06:30pm 18.7 15.4 7.9 49 5.5 S 15 20 8 11 1017.9 1017.9 0.2
20/06:00pm 18.9 14.8 7.7 48 5.7 SSE 19 22 10 12 1017.7 1017.7 0.2
20/05:30pm 19.4 15.9 8.6 49 5.6 SSE 17 20 9 11 1017.3 1017.3 0.2
20/05:00pm 19.3 16.1 8.3 49 5.7 SSE 15 22 8 12 1017.4 1017.4 0.2
20/04:30pm 19.5 16.4 8.8 50 5.6 SSE 15 20 8 11 1017.4 1017.4 0.2
20/04:00pm 19.9 16.7 8.3 47 6.0 SSE 15 22 8 12 1017.4 1017.4 0.2
20/03:30pm 19.3 16.5 8.5 49 5.6 SE 13 20 7 11 1017.6 1017.6 0.2
20/03:00pm 18.7 15.4 8.2 50 5.4 SE 15 20 8 11 1017.9 1017.9 0.2
20/02:30pm 19.6 16.4 8.4 48 5.8 SE 15 20 8 11 1018.1 1018.1 0.2
20/02:00pm 19.1 15.6 8.7 51 5.4 SE 17 20 9 11 1018.1 1018.1 0.2
20/01:30pm 19.8 16.7 8.7 48 5.8 SSE 15 20 8 11 1018.2 1018.2 0.2
20/01:00pm 19.5 16.3 8.5 49 5.7 SE 15 22 8 12 1018.4 1018.4 0.2
20/12:30pm 19.6 16.1 8.9 50 5.6 SSE 17 22 9 12 1018.4 1018.4 0.2
20/12:00pm 19.0 16.1 9.5 54 5.0 SSE 15 19 8 10 1018.7 1018.7 0.2
20/11:30am 17.9 15.0 9.5 58 4.4 S 15 20 8 11 1018.8 1018.8 0.2
20/11:00am 18.4 15.6 9.9 57 4.5 S 15 24 8 13 1019.0 1019.0 0.2
20/10:30am 18.8 16.4 8.5 51 5.3 SSE 11 17 6 9 1019.1 1019.1 0.2
20/10:00am 18.3 15.9 8.6 53 5.0 SSE 11 15 6 8 1018.9 1018.9 0.0
20/09:30am 17.8 15.8 8.7 55 4.7 SE 9 15 5 8 1018.9 1018.9 0.0
20/09:00am 17.4 15.2 9.3 59 4.2 SSE 11 17 6 9 1018.6 1018.6 0.2
20/08:30am 17.0 15.6 9.7 62 3.8 S 7 11 4 6 1018.4 1018.4 0.2
20/08:00am 16.7 14.8 9.1 61 3.9 S 9 13 5 7 1018.2 1018.2 0.2
20/07:30am 15.5 13.3 9.5 67 3.1 S 11 15 6 8 1017.8 1017.8 0.2
20/07:00am 15.5 12.9 9.3 66 3.2 S 13 17 7 9 1017.6 1017.6 0.2
20/06:30am 14.7 12.2 9.7 72 2.6 SSW 13 20 7 11 1017.3 1017.3 0.2
20/06:00am 15.0 11.8 9.8 71 2.7 SSW 17 20 9 11 1017.1 1017.1 0.2
20/05:30am 15.4 12.8 9.4 67 3.1 SSW 13 20 7 11 1016.9 1016.9 0.2
20/05:00am 14.5 12.1 8.5 67 3.0 SSW 11 13 6 7 1016.7 1016.7 0.2
20/04:30am 15.1 12.6 9.7 70 2.8 SSW 13 20 7 11 1016.6 1016.6 0.2
20/04:00am 15.3 12.0 9.5 68 3.0 SSW 17 22 9 12 1016.7 1016.7 0.2
20/03:30am 15.8 12.3 8.7 62 3.6 SSW 17 24 9 13 1016.7 1016.7 0.2
20/03:00am 15.7 13.1 10.6 71 2.7 SW 15 20 8 11 1016.8 1016.8 0.2
20/02:30am 15.9 12.0 9.3 65 3.4 SSW 20 28 11 15 1016.9 1016.9 0.2
20/02:00am 15.9 12.0 8.6 62 3.7 SSW 19 24 10 13 1017.0 1017.0 0.2
20/01:30am 15.8 12.3 10.1 69 3.0 SSW 19 24 10 13 1017.2 1017.2 0.2
20/01:00am 15.9 12.4 10.2 69 3.0 SSW 19 26 10 14 1017.3 1017.3 0.2
20/12:30am 15.2 11.6 9.8 70 2.8 SSW 19 26 10 14 1017.4 1017.4 0.2
20/12:00am 15.5 11.9 10.6 72 2.6 SSW 20 26 11 14 1017.3 1017.3 0.2
 
Date/Time
CDT
Temp
°C
App
Temp
°C
Dew
Point
°C
Rel
Hum
%
Delta-T
°C
Wind Press
QNH
hPa
Press
MSL
hPa
Rain since
9am
mm
Dir  Spd
km/h
Gust
km/h
Spd
kts
Gust
kts
19/11:30pm 15.5 11.9 9.9 69 2.9 SSW 19 24 10 13 1017.5 1017.5 0.2
19/11:00pm 15.4 11.7 9.6 68 3.0 SW 19 24 10 13 1017.6 1017.6 0.2
19/10:30pm 15.6 11.7 9.4 66 3.2 SSW 20 28 11 15 1017.6 1017.6 0.2
19/10:00pm 15.7 11.6 10.2 70 2.9 SSW 22 32 12 17 1017.5 1017.5 0.2
19/09:30pm 16.0 11.1 9.9 67 3.2 SSW 26 33 14 18 1017.4 1017.4 0.2
19/09:00pm 16.3 11.7 9.8 65 3.4 SSW 24 32 13 17 1017.0 1017.0 0.2
19/08:30pm 16.5 12.0 10.0 65 3.4 SSW 24 35 13 19 1016.9 1016.9 0.2
19/08:00pm 17.2 12.9 10.6 65 3.5 SSW 24 33 13 18 1016.6 1016.6 0.2
19/07:30pm 17.3 13.7 9.7 61 4.0 SSW 19 24 10 13 1016.4 1016.4 0.2
19/07:00pm 17.2 13.7 10.9 66 3.4 SSW 20 28 11 15 1016.2 1016.2 0.2
19/06:30pm 18.1 14.5 10.0 59 4.3 WSW 19 30 10 16 1016.1 1016.1 0.2
19/06:00pm 18.6 13.7 8.3 51 5.3 SW 24 32 13 17 1016.1 1016.1 0.2
19/05:30pm 19.7 14.8 8.6 48 5.8 SW 24 35 13 19 1016.0 1016.0 0.2
19/05:00pm 19.2 14.2 8.1 48 5.7 SW 24 35 13 19 1016.0 1016.0 0.2
19/04:30pm 18.5 15.5 12.0 66 3.6 SW 19 35 10 19 1016.0 1016.0 0.2
19/04:00pm 17.4 13.8 10.7 65 3.6 SSW 20 32 11 17 1016.2 1016.2 0.0
19/03:30pm 17.6 14.3 10.9 65 3.6 SSE 19 26 10 14 1016.4 1016.4 0.0
19/03:00pm 19.0 14.4 9.5 54 5.0 SW 24 33 13 18 1016.6 1016.6 0.0
19/02:30pm 19.3 15.4 9.5 53 5.2 SW 20 30 11 16 1016.9 1016.9 0.0

Other Formats:

Comma delimited format used in spreadsheet applications
http://www.bom.gov.au/fwo/IDS60801/IDS60801.94809.axf

JavaScript Object Notation format (JSON) in row-major order
http://www.bom.gov.au/fwo/IDS60801/IDS60801.94809.json